In Rescue
 
Open Full Screen Window  High Contrast Mode
Wind Gusting 00 knots
03
June 22, 2024 8:19 PM EDT
Weather Information
Wind Direction
  210 °
Wind Speed
  03 kt (3 mph)
Wind Gust
  00 kt (0 mph)
Altimeter
29.91 in
Visibility
10 SM
Temperature
29° C
84° F
Dewpoint
18° C
64° F
Humidity
52%
Sky Condition
Clear
VFR

METAR KPOV 230019Z AUTO 21003KT 10SM CLR 29/18 A2991 RMK AO2 T02870175 PWINO

FAA Disclaimer: The data displayed is for advisory purposes only and is not to be used for flight planning or operations.